createdAt,value
2023-01-17T00:02:13.879Z,0.20
2023-01-17T00:05:16.673Z,0.30
2023-01-17T00:08:19.638Z,0.28
2023-01-17T00:11:22.646Z,0.25
2023-01-17T00:14:25.587Z,0.40
2023-01-17T00:17:28.613Z,0.22
2023-01-17T00:20:31.529Z,0.30
2023-01-17T00:23:34.555Z,0.28
2023-01-17T00:26:36.746Z,0.50
2023-01-17T00:29:39.020Z,0.40
2023-01-17T00:32:41.847Z,0.30
2023-01-17T00:35:44.542Z,0.40
2023-01-17T00:38:46.929Z,0.40
2023-01-17T00:41:49.131Z,0.50
2023-01-17T00:44:51.350Z,0.15
2023-01-17T00:47:55.681Z,0.50
2023-01-17T00:50:58.839Z,0.40
2023-01-17T00:54:01.883Z,0.30
2023-01-17T00:57:04.117Z,0.25
2023-01-17T01:00:06.445Z,0.30
2023-01-17T01:03:09.035Z,0.40
2023-01-17T01:06:11.683Z,0.57
2023-01-17T01:09:13.700Z,0.40
2023-01-17T01:12:16.443Z,0.22
2023-01-17T01:15:19.112Z,0.30
2023-01-17T01:18:21.570Z,0.30
2023-01-17T01:21:23.935Z,0.30
2023-01-17T01:24:26.469Z,0.30
2023-01-17T01:27:29.701Z,0.38
2023-01-17T01:30:32.655Z,0.30
2023-01-17T01:33:35.302Z,0.35
2023-01-17T01:36:38.169Z,0.20
2023-01-17T01:39:40.759Z,0.20
2023-01-17T01:42:43.324Z,0.28
2023-01-17T01:45:45.763Z,0.30
2023-01-17T01:48:48.416Z,0.20
2023-01-17T01:51:51.442Z,0.22
2023-01-17T01:54:54.235Z,0.30
2023-01-17T01:57:57.435Z,0.30
2023-01-17T02:01:00.414Z,0.40
2023-01-17T02:04:03.462Z,0.30
2023-01-17T02:07:05.970Z,0.20
2023-01-17T02:10:08.952Z,0.20
2023-01-17T02:13:12.156Z,0.30
2023-01-17T02:16:15.298Z,0.30
2023-01-17T02:19:18.747Z,0.20
2023-01-17T02:22:20.979Z,0.40
2023-01-17T02:25:24.010Z,0.40
2023-01-17T02:28:27.094Z,0.15
2023-01-17T02:31:30.434Z,0.40
2023-01-17T02:34:33.382Z,0.25
2023-01-17T02:37:35.963Z,0.30
2023-01-17T02:40:39.229Z,0.10
2023-01-17T02:43:42.615Z,0.20
2023-01-17T02:46:45.456Z,0.30
2023-01-17T02:49:48.167Z,0.28
2023-01-17T02:52:51.222Z,0.20
2023-01-17T02:55:53.658Z,0.30
2023-01-17T02:58:56.352Z,0.28
2023-01-17T03:01:59.364Z,0.40
2023-01-17T03:05:02.738Z,0.20
2023-01-17T03:08:06.269Z,0.10
2023-01-17T03:11:08.970Z,0.30
2023-01-17T03:14:12.073Z,0.10
2023-01-17T03:17:15.920Z,0.20
2023-01-17T03:20:18.514Z,0.20
2023-01-17T03:23:21.472Z,0.20
2023-01-17T03:26:23.870Z,0.20
2023-01-17T03:29:26.193Z,0.17
2023-01-17T03:32:28.930Z,0.30
2023-01-17T03:35:31.627Z,0.30
2023-01-17T03:38:34.535Z,0.20
2023-01-17T03:41:37.677Z,0.10
2023-01-17T03:44:40.392Z,0.20
2023-01-17T03:47:43.304Z,0.20
2023-01-17T03:50:46.104Z,0.15
2023-01-17T03:53:49.073Z,0.13
2023-01-17T03:56:52.065Z,0.20
2023-01-17T03:59:54.564Z,0.20
2023-01-17T04:02:57.250Z,0.35
2023-01-17T04:06:00.223Z,0.28
2023-01-17T04:09:03.114Z,0.20
2023-01-17T04:12:06.019Z,0.20
2023-01-17T04:15:08.941Z,0.20
2023-01-17T04:18:12.152Z,0.20
2023-01-17T04:21:14.650Z,0.20
2023-01-17T04:24:18.106Z,0.10
2023-01-17T04:27:20.760Z,0.30
2023-01-17T04:30:23.655Z,0.30
2023-01-17T04:33:26.013Z,0.20
2023-01-17T04:36:28.628Z,0.20
2023-01-17T04:39:31.935Z,0.30
2023-01-17T04:42:34.853Z,0.30
2023-01-17T04:45:37.618Z,0.17
2023-01-17T04:48:40.581Z,0.20
2023-01-17T04:51:43.655Z,0.30
2023-01-17T04:54:46.175Z,0.20
2023-01-17T04:57:49.123Z,0.30
2023-01-17T05:00:51.498Z,0.10
2023-01-17T05:03:54.379Z,0.17
2023-01-17T05:06:57.364Z,0.20
2023-01-17T05:09:59.844Z,0.30
2023-01-17T05:13:02.734Z,0.13
2023-01-17T05:16:05.175Z,0.20
2023-01-17T05:19:07.924Z,0.20
2023-01-17T05:22:11.367Z,0.35
2023-01-17T05:25:14.973Z,0.13
2023-01-17T05:28:18.226Z,0.30
2023-01-17T05:31:21.203Z,0.25
2023-01-17T05:34:23.905Z,0.30
2023-01-17T05:37:26.889Z,0.28
2023-01-17T05:40:30.231Z,0.30
2023-01-17T05:43:33.121Z,0.32
2023-01-17T05:46:35.307Z,0.40
2023-01-17T05:49:37.351Z,0.30
2023-01-17T05:52:40.311Z,0.20
2023-01-17T05:55:43.719Z,0.30
2023-01-17T05:58:46.736Z,0.40
2023-01-17T06:01:49.403Z,0.35
2023-01-17T06:04:52.249Z,0.28
2023-01-17T06:07:54.908Z,0.30
2023-01-17T06:10:57.378Z,0.20
2023-01-17T06:13:59.903Z,0.30
2023-01-17T06:17:02.655Z,0.20
2023-01-17T06:20:05.281Z,0.25
2023-01-17T06:23:08.291Z,0.50
2023-01-17T06:26:11.307Z,0.40
2023-01-17T06:29:13.518Z,0.30
2023-01-17T06:32:16.543Z,0.45
2023-01-17T06:35:19.822Z,0.57
2023-01-17T06:38:22.741Z,0.50
2023-01-17T06:41:25.354Z,0.50
2023-01-17T06:44:28.483Z,0.50
2023-01-17T06:47:31.395Z,0.40
2023-01-17T06:50:34.183Z,0.40
2023-01-17T06:53:37.443Z,0.35
2023-01-17T06:56:40.982Z,0.40
2023-01-17T06:59:44.415Z,0.43
2023-01-17T07:02:47.685Z,0.40
2023-01-17T07:05:50.725Z,0.50
2023-01-17T07:08:53.690Z,0.30
2023-01-17T07:11:56.587Z,0.32
2023-01-17T07:14:58.965Z,0.30
2023-01-17T07:18:02.368Z,0.40
2023-01-17T07:21:05.251Z,0.40
2023-01-17T07:24:07.701Z,0.50
2023-01-17T07:27:10.337Z,0.52
2023-01-17T07:30:13.349Z,0.43
2023-01-17T07:33:15.863Z,0.50
2023-01-17T07:36:18.736Z,0.47
2023-01-17T07:39:21.730Z,0.52
2023-01-17T07:42:24.514Z,0.50
2023-01-17T07:45:27.637Z,0.50
2023-01-17T07:48:30.646Z,0.60
2023-01-17T07:51:33.322Z,0.50
2023-01-17T07:54:36.050Z,0.52
2023-01-17T07:57:38.693Z,0.40
2023-01-17T08:00:40.922Z,0.50
2023-01-17T08:03:43.526Z,0.50
2023-01-17T08:06:46.604Z,0.45
2023-01-17T08:09:49.220Z,0.45
2023-01-17T08:12:52.858Z,0.40
2023-01-17T08:15:56.184Z,0.50
2023-01-17T08:18:59.148Z,0.50
2023-01-17T08:22:02.578Z,0.40
2023-01-17T08:25:05.265Z,0.45
2023-01-17T08:28:08.095Z,0.50
2023-01-17T08:31:10.338Z,0.40
2023-01-17T08:34:12.694Z,0.57
2023-01-17T08:37:16.430Z,0.60
2023-01-17T08:40:19.942Z,0.70
2023-01-17T08:43:22.640Z,0.70
2023-01-17T08:46:25.286Z,0.50
2023-01-17T08:49:29.787Z,0.52
2023-01-17T08:52:32.156Z,0.50
2023-01-17T08:55:34.444Z,0.70
2023-01-17T08:58:37.426Z,0.50
2023-01-17T09:01:41.213Z,0.60
2023-01-17T09:04:44.242Z,0.60
2023-01-17T09:07:47.054Z,0.60
2023-01-17T09:10:50.105Z,0.60
2023-01-17T09:13:53.731Z,0.70
2023-01-17T09:16:56.589Z,0.50
2023-01-17T09:19:58.889Z,0.50
2023-01-17T09:23:01.613Z,0.70
2023-01-17T09:26:04.219Z,0.55
2023-01-17T09:29:06.546Z,0.68
2023-01-17T09:32:09.504Z,0.50
2023-01-17T09:35:11.685Z,0.60
2023-01-17T09:38:14.690Z,0.70
2023-01-17T09:41:17.909Z,0.65
2023-01-17T09:44:20.784Z,0.73
2023-01-17T09:47:23.564Z,0.60
2023-01-17T09:50:26.258Z,0.88
2023-01-17T09:53:28.827Z,0.93
2023-01-17T09:56:31.258Z,0.90
2023-01-17T09:59:35.835Z,0.90
2023-01-17T10:02:38.825Z,0.90
2023-01-17T10:05:41.318Z,0.77
2023-01-17T10:08:44.318Z,0.80
2023-01-17T10:11:47.353Z,0.90
2023-01-17T10:14:49.593Z,0.75
2023-01-17T10:17:51.843Z,0.85
2023-01-17T10:20:53.993Z,0.80
2023-01-17T10:23:56.719Z,0.98
2023-01-17T10:26:59.520Z,0.90
2023-01-17T10:30:02.417Z,0.85
2023-01-17T10:33:05.061Z,0.80
2023-01-17T10:36:08.152Z,0.80
2023-01-17T10:39:11.680Z,0.90
2023-01-17T10:42:13.856Z,0.93
2023-01-17T10:45:16.368Z,1.17
2023-01-17T10:48:20.800Z,1.05
2023-01-17T10:51:24.259Z,0.90
2023-01-17T10:54:27.203Z,1.10
2023-01-17T10:57:29.687Z,1.05
2023-01-17T11:00:32.018Z,1.15
2023-01-17T11:03:35.234Z,1.20
2023-01-17T11:06:49.725Z,1.05
2023-01-17T11:09:59.992Z,1.20
2023-01-17T11:13:03.001Z,1.10
2023-01-17T11:16:05.991Z,1.20
2023-01-17T11:19:09.224Z,1.20
2023-01-17T11:22:12.541Z,1.20
2023-01-17T11:25:15.474Z,1.20
2023-01-17T11:28:17.602Z,1.00
2023-01-17T11:31:20.291Z,0.80
2023-01-17T11:34:22.877Z,0.85
2023-01-17T11:37:25.038Z,0.93
2023-01-17T11:40:27.834Z,1.00
2023-01-17T11:43:31.012Z,1.20
2023-01-17T11:46:34.111Z,0.90
2023-01-17T11:49:36.736Z,1.20
2023-01-17T11:52:39.618Z,1.08
2023-01-17T11:55:42.716Z,1.20
2023-01-17T11:58:45.182Z,1.10
2023-01-17T12:01:48.721Z,1.15
2023-01-17T12:04:51.952Z,1.20
2023-01-17T12:07:55.350Z,1.40
2023-01-17T12:10:58.364Z,1.30
2023-01-17T12:14:00.814Z,1.20
2023-01-17T12:17:03.557Z,1.40
2023-01-17T12:20:07.095Z,1.30
2023-01-17T12:23:09.232Z,1.40
2023-01-17T12:26:11.749Z,1.20
2023-01-17T12:29:14.579Z,1.30
2023-01-17T12:32:16.772Z,1.40
2023-01-17T12:35:19.513Z,1.25
2023-01-17T12:38:33.442Z,1.20
2023-01-17T12:41:36.262Z,1.30
2023-01-17T12:44:38.411Z,1.27
2023-01-17T12:47:41.039Z,1.15
2023-01-17T12:50:44.478Z,1.20
2023-01-17T12:53:47.527Z,1.25
2023-01-17T12:56:50.171Z,1.33
2023-01-17T12:59:53.224Z,1.30
2023-01-17T13:02:55.923Z,1.10
2023-01-17T13:05:59.134Z,1.20
2023-01-17T13:09:02.576Z,1.10
2023-01-17T13:12:04.728Z,1.30
2023-01-17T13:15:07.360Z,1.20
2023-01-17T13:18:10.320Z,1.10
2023-01-17T13:21:13.528Z,1.30
2023-01-17T13:24:16.313Z,1.05
2023-01-17T13:27:18.837Z,1.10
2023-01-17T13:30:21.455Z,1.33
2023-01-17T13:33:23.803Z,1.27
2023-01-17T13:36:26.525Z,1.15
2023-01-17T13:39:29.048Z,1.10
2023-01-17T13:42:32.065Z,1.20
2023-01-17T13:45:34.486Z,1.20
2023-01-17T13:48:37.786Z,1.02
2023-01-17T13:51:40.221Z,1.20
2023-01-17T13:54:42.795Z,0.90
2023-01-17T13:57:44.873Z,1.10
2023-01-17T14:00:48.169Z,0.73
2023-01-17T14:03:51.619Z,1.00
2023-01-17T14:06:54.668Z,0.88
2023-01-17T14:09:58.220Z,1.05
2023-01-17T14:13:01.053Z,0.90
2023-01-17T14:16:04.047Z,0.80
2023-01-17T14:19:06.930Z,1.10
2023-01-17T14:22:09.945Z,1.00
2023-01-17T14:25:12.768Z,0.90
2023-01-17T14:28:15.241Z,1.00
2023-01-17T14:31:17.997Z,0.82
2023-01-17T14:34:20.720Z,0.88
2023-01-17T14:37:24.036Z,0.80
2023-01-17T14:40:27.777Z,1.00
2023-01-17T14:43:30.609Z,0.90
2023-01-17T14:46:33.299Z,0.88
2023-01-17T14:49:36.337Z,0.90
2023-01-17T14:52:38.793Z,0.80
2023-01-17T14:55:41.334Z,0.93
2023-01-17T14:58:44.244Z,0.88
2023-01-17T15:02:01.767Z,0.52
2023-01-17T15:05:08.683Z,0.80
2023-01-17T15:08:10.872Z,0.70
2023-01-17T15:11:12.865Z,0.70
2023-01-17T15:14:15.667Z,0.70
2023-01-17T15:17:18.123Z,0.80
2023-01-17T15:20:20.322Z,0.70
2023-01-17T15:23:23.007Z,0.60
2023-01-17T15:26:25.290Z,0.80
2023-01-17T15:29:27.485Z,0.70
2023-01-17T15:32:30.119Z,0.70
2023-01-17T15:35:32.406Z,0.70
2023-01-17T15:38:38.999Z,0.88
2023-01-17T15:41:41.946Z,0.80
2023-01-17T15:44:49.327Z,0.70
2023-01-17T15:47:52.509Z,0.60
2023-01-17T15:50:55.158Z,0.57
2023-01-17T15:53:58.272Z,0.60
2023-01-17T15:57:02.208Z,0.60
2023-01-17T16:00:05.209Z,0.63
2023-01-17T16:03:07.656Z,0.60
2023-01-17T16:06:10.080Z,0.50
2023-01-17T16:09:13.027Z,0.50
2023-01-17T16:12:16.080Z,0.60
2023-01-17T16:15:18.889Z,0.60
2023-01-17T16:18:21.950Z,0.40
2023-01-17T16:21:24.968Z,0.50
2023-01-17T16:24:27.852Z,0.40
2023-01-17T16:27:30.852Z,0.63
2023-01-17T16:30:33.705Z,0.60
2023-01-17T16:33:36.379Z,0.50
2023-01-17T16:36:39.328Z,0.57
2023-01-17T16:39:41.926Z,0.75
2023-01-17T16:42:44.781Z,0.60
2023-01-17T16:45:46.999Z,0.68
2023-01-17T16:48:49.983Z,0.70
2023-01-17T16:51:53.844Z,0.60
2023-01-17T16:54:56.310Z,0.70
2023-01-17T16:57:59.441Z,0.80
2023-01-17T17:01:02.805Z,0.70
2023-01-17T17:04:06.061Z,0.57
2023-01-17T17:07:08.989Z,0.70
2023-01-17T17:10:11.456Z,0.70
2023-01-17T17:13:14.020Z,0.82
2023-01-17T17:16:16.972Z,0.90
2023-01-17T17:19:19.246Z,0.75
2023-01-17T17:22:22.105Z,0.80
2023-01-17T17:25:24.945Z,0.90
2023-01-17T17:28:28.311Z,1.00
2023-01-17T17:31:31.633Z,0.90
2023-01-17T17:34:34.148Z,1.00
2023-01-17T17:37:36.782Z,1.10
2023-01-17T17:40:39.533Z,0.80
2023-01-17T17:43:42.648Z,1.10
2023-01-17T17:46:45.757Z,1.30
2023-01-17T17:49:48.739Z,1.30
2023-01-17T17:52:51.898Z,1.17
2023-01-17T17:55:54.884Z,1.20
2023-01-17T17:58:57.188Z,1.00
2023-01-17T18:02:00.353Z,1.23
2023-01-17T18:05:04.005Z,1.20
2023-01-17T18:08:07.057Z,1.10
2023-01-17T18:11:09.291Z,1.15
2023-01-17T18:14:12.358Z,1.20
2023-01-17T18:17:15.398Z,1.20
2023-01-17T18:20:17.993Z,1.35
2023-01-17T18:23:20.796Z,1.17
2023-01-17T18:26:22.948Z,1.30
2023-01-17T18:29:25.726Z,1.67
2023-01-17T18:32:28.727Z,1.63
2023-01-17T18:35:31.012Z,1.38
2023-01-17T18:38:34.170Z,1.40
2023-01-17T18:41:37.986Z,1.60
2023-01-17T18:44:40.949Z,1.70
2023-01-17T18:47:43.103Z,1.60
2023-01-17T18:50:45.820Z,1.50
2023-01-17T18:53:48.575Z,1.70
2023-01-17T18:56:51.635Z,1.50
2023-01-17T18:59:54.828Z,1.50
2023-01-17T19:02:57.492Z,1.50
2023-01-17T19:06:00.535Z,1.58
2023-01-17T19:09:03.531Z,1.60
2023-01-17T19:12:06.382Z,1.50
2023-01-17T19:15:08.942Z,1.27
2023-01-17T19:18:11.596Z,1.50
2023-01-17T19:21:14.306Z,1.67
2023-01-17T19:24:16.962Z,1.58
2023-01-17T19:27:19.577Z,1.90
2023-01-17T19:30:22.427Z,1.77
2023-01-17T19:33:25.450Z,1.77
2023-01-17T19:36:28.509Z,1.67
2023-01-17T19:39:30.930Z,1.80
2023-01-17T19:42:33.627Z,1.83
2023-01-17T19:45:36.172Z,1.98
2023-01-17T19:48:39.096Z,1.92
2023-01-17T19:51:41.739Z,2.05
2023-01-17T19:54:44.377Z,1.73
2023-01-17T19:57:47.447Z,1.98
2023-01-17T20:00:51.097Z,1.70
2023-01-17T20:03:56.000Z,1.70
2023-01-17T20:07:00.274Z,1.88
2023-01-17T20:10:03.256Z,1.90
2023-01-17T20:13:06.245Z,1.77
2023-01-17T20:16:08.958Z,1.70
2023-01-17T20:19:11.719Z,1.90
2023-01-17T20:22:14.748Z,1.88
2023-01-17T20:25:17.697Z,1.77
2023-01-17T20:28:20.207Z,2.13
2023-01-17T20:31:22.890Z,2.30
2023-01-17T20:34:26.315Z,2.15
2023-01-17T20:37:29.675Z,2.35
2023-01-17T20:40:32.472Z,2.67
2023-01-17T20:43:35.704Z,2.63
2023-01-17T20:46:40.572Z,2.30
2023-01-17T20:49:43.266Z,2.33
2023-01-17T20:52:46.363Z,2.30
2023-01-17T20:55:49.976Z,2.10
2023-01-17T20:58:53.413Z,2.15
2023-01-17T21:01:57.061Z,2.20
2023-01-17T21:04:59.792Z,2.00
2023-01-17T21:08:02.801Z,2.33
2023-01-17T21:11:05.284Z,2.33
2023-01-17T21:14:07.713Z,2.50
2023-01-17T21:17:10.008Z,2.60
2023-01-17T21:20:12.776Z,2.17
2023-01-17T21:23:15.308Z,2.50
2023-01-17T21:26:18.211Z,2.40
2023-01-17T21:29:21.500Z,2.83
2023-01-17T21:32:25.023Z,2.53
2023-01-17T21:35:27.638Z,2.80
2023-01-17T21:38:30.972Z,2.58
2023-01-17T21:41:33.578Z,2.75
2023-01-17T21:44:36.280Z,2.40
2023-01-17T21:47:39.311Z,2.40
2023-01-17T21:50:42.658Z,2.30
2023-01-17T21:53:46.008Z,2.35
2023-01-17T21:56:49.275Z,2.45
2023-01-17T21:59:52.206Z,2.35
2023-01-17T22:02:54.529Z,2.30
2023-01-17T22:05:56.769Z,2.25
2023-01-17T22:09:00.007Z,2.55
2023-01-17T22:12:03.443Z,2.78
2023-01-17T22:15:05.641Z,2.67
2023-01-17T22:18:08.291Z,2.50
2023-01-17T22:21:10.850Z,2.70
2023-01-17T22:24:13.508Z,2.83
2023-01-17T22:27:15.712Z,2.70
2023-01-17T22:30:18.755Z,2.90
2023-01-17T22:33:22.106Z,2.70
2023-01-17T22:36:24.675Z,2.67
2023-01-17T22:39:27.955Z,2.55
2023-01-17T22:42:30.505Z,2.58
2023-01-17T22:45:33.560Z,2.50
2023-01-17T22:48:36.418Z,2.55
2023-01-17T22:51:39.345Z,2.25
2023-01-17T22:54:42.005Z,2.45
2023-01-17T22:57:45.163Z,2.47
2023-01-17T23:00:48.066Z,2.88
2023-01-17T23:03:51.045Z,2.63
2023-01-17T23:06:54.071Z,3.00
2023-01-17T23:09:57.471Z,2.65
2023-01-17T23:13:00.676Z,3.00
2023-01-17T23:16:03.817Z,2.60
2023-01-17T23:19:06.567Z,2.90
2023-01-17T23:22:09.194Z,3.05
2023-01-17T23:25:11.377Z,3.17
2023-01-17T23:28:14.074Z,3.20
2023-01-17T23:31:16.797Z,2.55
2023-01-17T23:34:19.493Z,2.65
2023-01-17T23:37:22.198Z,2.50
2023-01-17T23:40:24.748Z,2.90
2023-01-17T23:43:27.594Z,2.70
2023-01-17T23:46:30.430Z,2.80
2023-01-17T23:49:32.668Z,2.40
2023-01-17T23:52:34.907Z,2.60
2023-01-17T23:55:37.387Z,2.63
2023-01-17T23:58:40.299Z,2.60
